Nearby METAR Reports

 

KTTN - Trenton, New Jersey, USA
Distance from station: W 8mi, 12km
Updated: Thu, 02-Feb-2023 9:53pm EST
Clear
Clear
 Wind from SW
Wind: SW 7 mph , 11 km/h
Temperature: 34°F , 1°C
Wind Chill: 28°F , -2°C
Dew Point: 19°F , -7°C
Humidity: 56%
Barometer: 29.89 inHg , 1012.2 hPa
Clouds: Clear
Visibility: 10 miles , 16 km
2023/02/03 02:53 KTTN 030253Z 23006KT 10SM CLR 01/M07 A2989 RMK AO2 SLPNO T00061067 56019
KWRI - Wrightst/Mcguire, New Jersey, USA
Distance from station: SSE 18mi, 29km
Updated: Thu, 02-Feb-2023 9:55pm EST
Clear
Clear
 Wind from SW
Wind: SW 9 mph , 15 km/h
Temperature: 32°F , 0°C
Wind Chill: 24°F , -4°C
Dew Point: 21°F , -6°C
Humidity: 64%
Barometer: 29.90 inHg , 1012.5 hPa
Clouds: Clear
Visibility: 10 miles , 16 km
2023/02/03 02:55 KWRI 030255Z AUTO 22008KT 10SM CLR M00/M06 A2990 RMK AO2 SLP126 T10021056 57020 $
KPNE - Philadelphia/Ne, Pennsylvania, USA
Distance from station: SW 22mi, 35km
Updated: Thu, 02-Feb-2023 9:54pm EST
Clear
Clear
 Wind from SW
Wind: SW 8 mph , 13 km/h
Temperature: 36°F , 2°C
Wind Chill: 30°F , -1°C
Dew Point: 21°F , -6°C
Humidity: 56%
Barometer: 29.91 inHg , 1012.9 hPa
Clouds: Clear
Visibility: 10 miles , 16 km
2023/02/03 02:54 KPNE 030254Z 23007KT 10SM CLR 02/M06 A2991 RMK AO2 SLP130 T00171056 56021
 
KDYL - Doylestown, Pennsylvania, USA
Distance from station: W 24mi, 38km
Updated: Thu, 02-Feb-2023 9:54pm EST
Clear
Clear
 Wind from SSW
Wind: SSW 6 mph , 9 km/h
Temperature: 34°F , 1°C
Wind Chill: 29°F , -2°C
Dew Point: 19°F , -7°C
Humidity: 56%
Barometer: 29.87 inHg , 1011.5 hPa
Clouds: Clear
Visibility: 10 miles , 16 km
2023/02/03 02:54 KDYL 030254Z AUTO 21005KT 10SM CLR 01/M07 A2987 RMK AO2 SLP124 T00061067 56018 $
KSMQ - Somerville, New Jersey, USA
Distance from station: 0 24mi, 39km
Updated: Thu, 02-Feb-2023 9:53pm EST
Clear
Clear
 Wind from calm
Wind: Calm
Temperature: 32°F , 0°C
Dew Point: 18°F , -8°C
Humidity: 55%
Barometer: 29.86 inHg , 1011.2 hPa
Clouds: Clear
Visibility: 10 miles , 16 km
2023/02/03 02:53 KSMQ 030253Z AUTO 00000KT 10SM CLR 00/M08 A2986 RMK AO2 SLP115 T00001078 56019
KVAY - Mount Holly, New Jersey, USA
Distance from station: SSW 24mi, 39km
Updated: Thu, 02-Feb-2023 9:54pm EST
Clear
Clear
 Wind from SW
Wind: SW 6 mph , 9 km/h
Temperature: 36°F , 2°C
Wind Chill: 31°F , -1°C
Dew Point: 23°F , -5°C
Humidity: 60%
Barometer: 29.91 inHg , 1012.9 hPa
Clouds: Clear
Visibility: 10 miles , 16 km
2023/02/03 02:54 KVAY 030254Z AUTO 23005KT 10SM CLR 02/M05 A2991 RMK AO2 SLP129 T00171050 58023
 
KNEL - Lakehurst Nas, New Jersey, USA
Distance from station: SE 25mi, 40km
Updated: Thu, 02-Feb-2023 10:00pm EST
Clear
Clear
 Wind from WSW
Wind: WSW 8 mph , 13 km/h
Temperature: 34°F , 1°C
Wind Chill: 27°F , -3°C
Dew Point: 21°F , -6°C
Humidity: 60%
Barometer: 29.90 inHg , 1012.5 hPa
Clouds: Clear
2023/02/03 03:00 KNEL 030300Z AUTO 24007KT CLR 01/M06 A2990 RMK AO2 SLP124 T00061061 58022 $
KBLM - Belmar/Farmdale, New Jersey, USA
Distance from station: ESE 30mi, 48km
Updated: Thu, 02-Feb-2023 9:56pm EST
Clear
Clear
 Wind from SW
Wind: SW 10 mph , 17 km/h
Barometer: 29.91 inHg , 1012.9 hPa
Clouds: Clear
Visibility: 10 miles , 16 km
2023/02/03 02:56 KBLM 030256Z AUTO 22009KT 10SM CLR A2991 RMK AO2 SLPNO 6//// 57017 FZRANO $
KMJX - Toms River, New Jersey, USA
Distance from station: SE 30mi, 49km
Updated: Fri, 20-Jan-2023 10:56am EST
NOT Current
Mostly cloudy
Mostly cloudy
 Wind from W
Wind: W 18 mph , 30 km/h, Gust: 25 mph , 41 km/h
Temperature: 48°F , 9°C
Wind Chill: 41°F , 5°C
Dew Point: 36°F , 2°C
Humidity: 62%
Barometer: 29.70 inHg , 1005.8 hPa
Clouds: Mostly cloudy
Visibility: 10 miles , 16 km
Cloud details: Mostly cloudy 4500 ft
2023/01/20 15:56 KMJX 201556Z AUTO 28016G22KT 10SM BKN045 09/02 A2970 RMK AO2 SLP062 T00940017 TSNO
 
KLOM - Philly Wings F, Pennsylvania, USA
Distance from station: WSW 33mi, 52km
Updated: Thu, 02-Feb-2023 9:55pm EST
Clear
Clear
 Wind from SW
Wind: SW 9 mph , 15 km/h, Gust: 18 mph , 30 km/h
Temperature: 34°F , 1°C
Wind Chill: 27°F , -3°C
Dew Point: 23°F , -5°C
Humidity: 65%
Barometer: 29.89 inHg , 1012.2 hPa
Clouds: Clear
Visibility: 10 miles , 16 km
2023/02/03 02:55 KLOM 030255Z AUTO 23008G16KT 10SM CLR 01/M05 A2989 RMK AO2 T00081047
KCKZ - Perkasie, Pennsylvania, USA
Distance from station: WNW 33mi, 53km
Updated: Thu, 02-Feb-2023 10:15pm EST
Clear
Clear
 Wind from WSW
Wind: WSW 5 mph , 7 km/h
Temperature: 30°F , -1°C
Wind Chill: 25°F , -4°C
Dew Point: 21°F , -6°C
Humidity: 69%
Barometer: 29.87 inHg , 1011.5 hPa
Clouds: Clear
Visibility: 10 miles , 16 km
2023/02/03 03:15 KCKZ 030315Z AUTO 24004KT 10SM CLR M01/M06 A2987 RMK AO2
KLDJ - Linden, New Jersey, USA
Distance from station: NE 33mi, 53km
Updated: Mon, 23-Jan-2023 11:55am EST
NOT Current
Drizzle, Overcast
Drizzle, Overcast
 Wind from WNW
Wind: WNW 10 mph , 17 km/h
Temperature: 39°F , 4°C
Wind Chill: 32°F , 0°C
Dew Point: 36°F , 2°C
Humidity: 87%
Barometer: 29.57 inHg , 1001.4 hPa
Summary: Drizzle
Clouds: Overcast
Visibility: 5 miles , 8 km
Cloud details: Partly cloudy 900 ft
Mostly cloudy 1400 ft
Overcast 1900 ft
2023/01/23 16:55 KLDJ 231655Z AUTO 30009KT 5SM DZ SCT009 BKN014 OVC019 04/02 A2957 RMK AO2 T00350020
 
KMMU - Morristown Muni, New Jersey, USA
Distance from station: NNE 38mi, 62km
Updated: Thu, 02-Feb-2023 9:45pm EST
Mostly cloudy
Mostly cloudy
 Wind from SW
Wind: SW 5 mph , 7 km/h
Temperature: 32°F , 0°C
Wind Chill: 27°F , -3°C
Dew Point: 16°F , -9°C
Humidity: 51%
Barometer: 29.87 inHg , 1011.5 hPa
Clouds: Mostly cloudy
Visibility: 10 miles , 16 km
Cloud details: Mostly cloudy 25000 ft
2023/02/03 02:45 KMMU 030245Z 23004KT 10SM BKN250 00/M09 A2987
KEWR - Newark, New Jersey, USA
Distance from station: NE 39mi, 63km
Updated: Thu, 02-Feb-2023 9:51pm EST
Mostly cloudy
Mostly cloudy
 Wind from SW
Wind: SW 14 mph , 22 km/h
Temperature: 36°F , 2°C
Wind Chill: 27°F , -3°C
Dew Point: 18°F , -8°C
Humidity: 48%
Barometer: 29.87 inHg , 1011.5 hPa
Clouds: Mostly cloudy
Visibility: 10 miles , 16 km
Cloud details: Mostly cloudy 25000 ft
2023/02/03 02:51 KEWR 030251Z 22012KT 10SM BKN250 02/M08 A2987 RMK AO2 SLP115 T00171083 56021
KUKT - Quakertown Arp, Pennsylvania, USA
Distance from station: WNW 39mi, 63km
Updated: Thu, 02-Feb-2023 10:15pm EST
Clear
Clear
 Wind from calm
Wind: Calm
Temperature: 28°F , -2°C
Dew Point: 19°F , -7°C
Humidity: 69%
Barometer: 29.87 inHg , 1011.5 hPa
Clouds: Clear
Visibility: 10 miles , 16 km
2023/02/03 03:15 KUKT 030315Z AUTO 00000KT 10SM CLR M02/M07 A2987 RMK A01
 
KPHL - Philadelphia, Pennsylvania, USA
Distance from station: SW 40mi, 65km
Updated: Thu, 02-Feb-2023 9:54pm EST
Overcast
Overcast
 Wind from SW
Wind: SW 15 mph , 24 km/h
Temperature: 36°F , 2°C
Wind Chill: 27°F , -3°C
Dew Point: 25°F , -4°C
Humidity: 65%
Barometer: 29.91 inHg , 1012.9 hPa
Clouds: Overcast
Visibility: 10 miles , 16 km
Cloud details: Mostly cloudy 22000 ft
Overcast 25000 ft
2023/02/03 02:54 KPHL 030254Z 23013KT 10SM BKN220 OVC250 02/M04 A2991 RMK AO2 SLP128 T00221039 58023 $
KJRB - Manhattan/Dwntwn, New York, USA
Distance from station: NE 46mi, 74km
Updated: Thu, 02-Feb-2023 9:56pm EST
Clear
Clear
 Wind from WSW
Wind: WSW 14 mph , 22 km/h
Temperature: 36°F , 2°C
Wind Chill: 27°F , -3°C
Dew Point: 19°F , -7°C
Humidity: 52%
Barometer: 29.89 inHg , 1012.2 hPa
Clouds: Clear
Visibility: 10 miles , 16 km
2023/02/03 02:56 KJRB 030256Z AUTO 25012KT 10SM CLR 02/M07 A2989 RMK AO2 SLP121 T00221067 56022 FZRANO
KPTW - Pottstown, Pennsylvania, USA
Distance from station: W 46mi, 74km
Updated: Mon, 23-Jan-2023 12:01pm EST
NOT Current
Light rain, Mist, Overcast
Light rain, Mist, Overcast
 Wind from WNW
Wind: WNW 9 mph , 15 km/h
Temperature: 36°F , 2°C
Wind Chill: 29°F , -2°C
Dew Point: 34°F , 1°C
Humidity: 93%
Barometer: 29.66 inHg , 1004.4 hPa
Summary: Light rain, Mist
Clouds: Overcast
Visibility: 6 miles , 10 km
Cloud details: Partly cloudy 1100 ft
Mostly cloudy 1900 ft
Overcast 2500 ft
2023/01/23 17:01 KPTW 231701Z AUTO 29008KT 6SM -RA BR SCT011 BKN019 OVC025 02/01 A2966 RMK AO2 P0001 T00170011
 
KCDW - Caldwell, New Jersey, USA
Distance from station: NNE 47mi, 76km
Updated: Thu, 02-Feb-2023 9:53pm EST
Clear
Clear
 Wind from varies
Wind: varies 5 mph , 7 km/h
Temperature: 34°F , 1°C
Wind Chill: 29°F , -2°C
Dew Point: 16°F , -9°C
Humidity: 48%
Barometer: 29.86 inHg , 1011.2 hPa
Clouds: Clear
Visibility: 10 miles , 16 km
2023/02/03 02:53 KCDW 030253Z VRB04KT 10SM CLR 01/M09 A2986 RMK AO2 SLP119 T00111094 56023
KXLL - Allentown Queen, Pennsylvania, USA
Distance from station: WNW 47mi, 76km
Updated: Thu, 29-Dec-2022 2:15am EST
NOT Current
Clear
Clear
 Wind from calm
Wind: Calm
Temperature: 30°F , -1°C
Dew Point: 27°F , -3°C
Humidity: 86%
Barometer: 30.30 inHg , 1026.1 hPa
Clouds: Clear
Visibility: 10 miles , 16 km
2022/12/29 07:15 KXLL 290715Z AUTO 00000KT 10SM CLR M01/M03 A3030 RMK AO2